El Galpon, Argentina
Current Conditions -  °F | °C
As of 11:00 AM on Thursday 29 Jan 2015 (Local Time) from SASJ Reporting Station
Overcast Overcast  
Wind Chill: 20°   Ceiling: 4500
Heat Index: 20°   Visibility: 6mi
Dew Point: 19°   Wind: 7mph
Humidity: 94%   Direction: 320°NW
Pressure: 30.21"   Gusts: NA
Location:  25.38°S, 64.63°W
Report Text: SASJ 291400Z 32006KT 290V360 9999 SCT015OVC045 20/19 Q1023
Loading
Personal Weather Stations






























Interactive Weather Map New forecast layout! Learn more

10-Day Weather Forecast

Advertisements
Track Severe Weather on mobile